Time;durP1;ratioP1;P1;durP2;ratioP2;P2;SDS_P1;SDS_P2;PMS_P1;PMS_P2;Temp;Humidity;BMP_temperature;BMP_pressure;BME280_temperature;BME280_humidity;BME280_pressure;Samples;Min_cycle;Max_cycle;Signal;HPM_P1;HPM_P2
2023/03/15 00:01:17;;;;;;;8.18;3.03;;;;;;;;;;5117592;28;20354;-22
2023/03/15 00:03:43;;;;;;;7.20;2.53;;;;;;;;;;5117241;28;20065;-21
2023/03/15 00:06:10;;;;;;;11.07;2.63;;;;;;;;;;5117736;28;20034;-20
2023/03/15 00:08:36;;;;;;;13.90;2.97;;;;;;;;;;5098385;28;20439;-23
2023/03/15 00:11:02;;;;;;;8.75;2.92;;;;;;;;;;5117559;28;20406;-20
2023/03/15 00:13:29;;;;;;;6.05;3.38;;;;;;;;;;5117538;28;20351;-22
2023/03/15 00:15:56;;;;;;;7.75;2.70;;;;;;;;;;5117531;28;20016;-21
2023/03/15 00:18:22;;;;;;;11.95;2.28;;;;;;;;;;5117225;28;20478;-21
2023/03/15 00:20:49;;;;;;;13.27;3.30;;;;;;;;;;5117444;28;20032;-23
2023/03/15 00:23:15;;;;;;;9.48;4.03;;;;;;;;;;5117094;28;20036;-21
2023/03/15 00:25:45;;;;;;;9.40;3.65;;;;;;;;;;5117300;28;20110;-22
2023/03/15 00:28:11;;;;;;;9.23;2.22;;;;;;;;;;5117050;28;20391;-23
2023/03/15 00:30:37;;;;;;;5.53;2.63;;;;;;;;;;5116861;28;20038;-23
2023/03/15 00:33:04;;;;;;;8.55;3.00;;;;;;;;;;5117385;28;20087;-21
2023/03/15 00:35:32;;;;;;;10.13;4.55;;;;;;;;;;5117136;28;20023;-20
2023/03/15 00:37:58;;;;;;;7.05;2.63;;;;;;;;;;5098875;28;20016;-21
2023/03/15 00:40:25;;;;;;;6.22;2.55;;;;;;;;;;5116814;28;20035;-21
2023/03/15 00:42:51;;;;;;;7.28;2.47;;;;;;;;;;5116689;28;20109;-27
2023/03/15 00:45:18;;;;;;;8.43;3.03;;;;;;;;;;5116951;28;20081;-21
2023/03/15 00:47:45;;;;;;;12.63;3.47;;;;;;;;;;5116898;28;20102;-20
2023/03/15 00:50:11;;;;;;;9.70;2.95;;;;;;;;;;5116908;28;20163;-20
2023/03/15 00:52:38;;;;;;;10.25;2.53;;;;;;;;;;5116438;28;20070;-21
2023/03/15 00:55:05;;;;;;;9.07;2.67;;;;;;;;;;5116569;28;20113;-22
2023/03/15 00:57:34;;;;;;;8.57;3.20;;;;;;;;;;5116473;28;20030;-22
2023/03/15 01:00:07;;;;;;;12.63;3.20;;;;;;;;;;5116668;28;20023;-24
2023/03/15 01:02:33;;;;;;;5.20;2.45;;;;;;;;;;5116543;28;20023;-21
2023/03/15 01:05:00;;;;;;;7.13;3.63;;;;;;;;;;5116099;28;20072;-20
2023/03/15 01:07:26;;;;;;;6.68;2.35;;;;;;;;;;5116431;28;20024;-27
2023/03/15 01:09:52;;;;;;;11.80;2.90;;;;;;;;;;5116478;28;20461;-20
2023/03/15 01:12:19;;;;;;;7.05;2.35;;;;;;;;;;5116048;28;20362;-22
2023/03/15 01:14:45;;;;;;;5.28;3.03;;;;;;;;;;5116179;28;20544;-21
2023/03/15 01:17:11;;;;;;;4.57;2.30;;;;;;;;;;5115999;28;20031;-26
2023/03/15 01:19:37;;;;;;;5.60;3.03;;;;;;;;;;5116546;28;20028;-24
2023/03/15 01:22:03;;;;;;;9.05;2.47;;;;;;;;;;5115963;28;20412;-20
2023/03/15 01:24:30;;;;;;;3.90;2.17;;;;;;;;;;5116239;28;20028;-21
2023/03/15 01:26:56;;;;;;;6.03;2.47;;;;;;;;;;5116176;28;20133;-22
2023/03/15 01:29:22;;;;;;;11.07;2.55;;;;;;;;;;5115790;28;20032;-22
2023/03/15 01:31:48;;;;;;;7.55;2.60;;;;;;;;;;5115656;28;20076;-21
2023/03/15 01:34:14;;;;;;;7.57;3.38;;;;;;;;;;5115744;28;20035;-22
2023/03/15 01:36:40;;;;;;;4.70;2.60;;;;;;;;;;5097850;28;20076;-21
2023/03/15 01:39:07;;;;;;;10.48;2.83;;;;;;;;;;5115654;28;20024;-22
2023/03/15 01:41:33;;;;;;;22.95;4.43;;;;;;;;;;5115563;28;20020;-21
2023/03/15 01:43:59;;;;;;;5.53;2.75;;;;;;;;;;5115536;28;20028;-20
2023/03/15 01:46:33;;;;;;;10.25;3.72;;;;;;;;;;5115820;28;20323;-22
2023/03/15 01:49:17;;;;;;;5.55;2.75;;;;;;;;;;5115506;28;20099;-21
2023/03/15 01:52:02;;;;;;;5.50;2.70;;;;;;;;;;5115887;28;20028;-21
2023/03/15 01:54:28;;;;;;;3.33;2.42;;;;;;;;;;5115423;28;20157;-23
2023/03/15 01:56:58;;;;;;;5.13;2.35;;;;;;;;;;5115623;28;20023;-21
2023/03/15 01:59:36;;;;;;;6.32;2.33;;;;;;;;;;5115676;28;20023;-22
2023/03/15 02:02:02;;;;;;;5.65;3.17;;;;;;;;;;5115542;28;20034;-20
2023/03/15 02:04:32;;;;;;;6.07;2.47;;;;;;;;;;5115159;28;20101;-21
2023/03/15 02:07:01;;;;;;;3.70;2.33;;;;;;;;;;5115158;28;20403;-21
2023/03/15 02:09:30;;;;;;;5.18;2.05;;;;;;;;;;5115490;28;20019;-28
2023/03/15 02:11:57;;;;;;;3.70;2.22;;;;;;;;;;5115025;28;20096;-21
2023/03/15 02:14:23;;;;;;;8.82;2.42;;;;;;;;;;5115124;28;20019;-21
2023/03/15 02:16:52;;;;;;;5.82;3.10;;;;;;;;;;5115090;28;20035;-22
2023/03/15 02:19:25;;;;;;;3.78;2.60;;;;;;;;;;5115033;28;20028;-22
2023/03/15 02:21:58;;;;;;;6.30;2.17;;;;;;;;;;5115056;28;20035;-22
2023/03/15 02:24:25;;;;;;;5.55;2.17;;;;;;;;;;5115044;28;20089;-32
2023/03/15 02:26:55;;;;;;;6.57;2.30;;;;;;;;;;5115307;28;20170;-22
2023/03/15 02:29:22;;;;;;;3.53;2.10;;;;;;;;;;5097114;28;20467;-27
2023/03/15 02:31:49;;;;;;;7.28;2.95;;;;;;;;;;5118028;28;20040;-21
2023/03/15 02:34:15;;;;;;;5.25;1.95;;;;;;;;;;5119544;28;20027;-21
2023/03/15 02:36:41;;;;;;;4.50;2.22;;;;;;;;;;5119223;28;20016;-21
2023/03/15 02:39:14;;;;;;;3.20;1.95;;;;;;;;;;5119186;28;20024;-21
2023/03/15 02:41:42;;;;;;;5.82;2.70;;;;;;;;;;5119666;28;20156;-23
2023/03/15 02:44:10;;;;;;;3.40;1.63;;;;;;;;;;5119295;28;20038;-21
2023/03/15 02:46:36;;;;;;;5.38;1.90;;;;;;;;;;5119618;28;20453;-22
2023/03/15 02:49:03;;;;;;;4.32;2.40;;;;;;;;;;5119271;28;20023;-23
2023/03/15 02:51:29;;;;;;;6.32;2.25;;;;;;;;;;5118817;28;20034;-24
2023/03/15 02:53:56;;;;;;;6.28;2.92;;;;;;;;;;5118858;28;20442;-26
2023/03/15 02:56:23;;;;;;;5.30;2.30;;;;;;;;;;5119112;28;20045;-23
2023/03/15 02:58:49;;;;;;;15.15;3.30;;;;;;;;;;5118778;28;20034;-21
2023/03/15 03:01:16;;;;;;;6.25;1.95;;;;;;;;;;5118761;28;20023;-21
2023/03/15 03:03:43;;;;;;;3.90;2.22;;;;;;;;;;5118328;28;20040;-21
2023/03/15 03:06:10;;;;;;;6.32;3.00;;;;;;;;;;5119016;28;20027;-20
2023/03/15 03:08:36;;;;;;;4.10;2.13;;;;;;;;;;5118905;28;20032;-21
2023/03/15 03:11:03;;;;;;;6.22;2.03;;;;;;;;;;5118487;28;20035;-21
2023/03/15 03:13:29;;;;;;;4.72;2.33;;;;;;;;;;5118544;28;20087;-21
2023/03/15 03:15:58;;;;;;;5.15;1.98;;;;;;;;;;5118747;28;20024;-22
2023/03/15 03:18:25;;;;;;;4.65;2.20;;;;;;;;;;5118696;28;20030;-21
2023/03/15 03:20:55;;;;;;;3.95;2.53;;;;;;;;;;5118683;28;20034;-21
2023/03/15 03:23:24;;;;;;;6.23;2.80;;;;;;;;;;5118598;28;20035;-21
2023/03/15 03:25:51;;;;;;;2.80;1.90;;;;;;;;;;5118292;28;20023;-21
2023/03/15 03:28:17;;;;;;;5.93;2.08;;;;;;;;;;5118512;28;20077;-24
2023/03/15 03:30:43;;;;;;;3.58;2.05;;;;;;;;;;5118074;28;20023;-21
2023/03/15 03:33:09;;;;;;;6.88;2.25;;;;;;;;;;5118194;28;20032;-22
2023/03/15 03:35:35;;;;;;;7.10;1.80;;;;;;;;;;5118332;28;20051;-21
2023/03/15 03:38:02;;;;;;;4.95;2.00;;;;;;;;;;5118317;28;20024;-27
2023/03/15 03:40:28;;;;;;;5.30;2.90;;;;;;;;;;5118050;28;20019;-22
2023/03/15 03:42:54;;;;;;;1.80;1.70;;;;;;;;;;5117996;28;20102;-22
2023/03/15 03:45:20;;;;;;;6.00;2.40;;;;;;;;;;5099924;28;20533;-22
2023/03/15 03:47:46;;;;;;;7.82;2.28;;;;;;;;;;5117807;28;20052;-21
2023/03/15 03:50:13;;;;;;;4.40;2.28;;;;;;;;;;5118575;28;20023;-23
2023/03/15 03:52:42;;;;;;;3.33;2.20;;;;;;;;;;5117680;28;20028;-24
2023/03/15 03:55:09;;;;;;;3.47;2.05;;;;;;;;;;5117986;28;20350;-21
2023/03/15 03:57:35;;;;;;;3.80;2.17;;;;;;;;;;5117957;28;20016;-21
2023/03/15 04:00:01;;;;;;;5.07;2.08;;;;;;;;;;5099712;28;20102;-22
2023/03/15 04:02:27;;;;;;;4.28;2.08;;;;;;;;;;5117525;28;20034;-21
2023/03/15 04:04:53;;;;;;;2.83;2.15;;;;;;;;;;5117538;28;20039;-21
2023/03/15 04:07:19;;;;;;;6.05;2.70;;;;;;;;;;5117414;28;20057;-23
2023/03/15 04:09:45;;;;;;;4.93;2.13;;;;;;;;;;5117403;28;20023;-22
2023/03/15 04:12:12;;;;;;;4.00;2.17;;;;;;;;;;5117227;28;20036;-26
2023/03/15 04:14:38;;;;;;;4.70;1.85;;;;;;;;;;5117638;28;20030;-22
2023/03/15 04:17:04;;;;;;;3.83;1.73;;;;;;;;;;5117332;28;20031;-23
2023/03/15 04:19:30;;;;;;;3.88;2.40;;;;;;;;;;5117539;28;20464;-21
2023/03/15 04:21:56;;;;;;;3.70;2.30;;;;;;;;;;5117069;28;20035;-21
2023/03/15 04:24:23;;;;;;;6.85;1.98;;;;;;;;;;5117113;28;20069;-23
2023/03/15 04:26:49;;;;;;;5.95;2.38;;;;;;;;;;5117091;28;20106;-20
2023/03/15 04:29:15;;;;;;;5.20;2.20;;;;;;;;;;5117056;28;20042;-23
2023/03/15 04:31:41;;;;;;;7.18;2.60;;;;;;;;;;5117210;28;20034;-21
2023/03/15 04:34:08;;;;;;;6.03;2.72;;;;;;;;;;5116900;28;20058;-21
2023/03/15 04:36:34;;;;;;;7.20;3.67;;;;;;;;;;5117444;28;20111;-24
2023/03/15 04:39:04;;;;;;;11.80;3.63;;;;;;;;;;5117735;28;20392;-24
2023/03/15 04:41:31;;;;;;;8.18;3.38;;;;;;;;;;5117132;28;20028;-24
2023/03/15 04:43:57;;;;;;;9.13;2.72;;;;;;;;;;5116700;28;20073;-22
2023/03/15 04:46:23;;;;;;;10.50;3.30;;;;;;;;;;5117516;28;20395;-22
2023/03/15 04:48:50;;;;;;;7.70;3.08;;;;;;;;;;5117516;28;20430;-21
2023/03/15 04:51:16;;;;;;;5.20;2.72;;;;;;;;;;5098495;28;20019;-22
2023/03/15 04:53:42;;;;;;;4.15;2.33;;;;;;;;;;5116069;28;20027;-21
2023/03/15 04:56:08;;;;;;;9.80;3.40;;;;;;;;;;5117097;28;20346;-22
2023/03/15 04:58:34;;;;;;;5.22;2.60;;;;;;;;;;5116743;28;20031;-21
2023/03/15 05:01:00;;;;;;;7.05;2.75;;;;;;;;;;5116281;28;20028;-22
2023/03/15 05:03:26;;;;;;;9.32;2.65;;;;;;;;;;5116053;28;20458;-25
2023/03/15 05:05:53;;;;;;;6.20;2.85;;;;;;;;;;5116587;28;20035;-21
2023/03/15 05:08:20;;;;;;;10.55;3.05;;;;;;;;;;5116424;28;20019;-21
2023/03/15 05:10:50;;;;;;;4.28;2.03;;;;;;;;;;5116305;28;20040;-23
2023/03/15 05:13:17;;;;;;;5.50;2.20;;;;;;;;;;5115966;28;20027;-22
2023/03/15 05:15:45;;;;;;;6.45;3.22;;;;;;;;;;5115819;28;20028;-21
2023/03/15 05:18:11;;;;;;;4.13;2.00;;;;;;;;;;5116115;28;20019;-24
2023/03/15 05:20:37;;;;;;;7.25;2.65;;;;;;;;;;5115686;28;20015;-21
2023/03/15 05:23:03;;;;;;;4.68;2.67;;;;;;;;;;5115649;28;20118;-24
2023/03/15 05:25:30;;;;;;;6.28;2.40;;;;;;;;;;5115727;28;20035;-21
2023/03/15 05:27:56;;;;;;;5.53;2.70;;;;;;;;;;5115775;28;20070;-22
2023/03/15 05:30:22;;;;;;;7.45;2.38;;;;;;;;;;5115666;28;20481;-24
2023/03/15 05:32:48;;;;;;;13.63;2.67;;;;;;;;;;5115612;28;20443;-26
2023/03/15 05:35:16;;;;;;;8.88;3.10;;;;;;;;;;5115459;28;20016;-22
2023/03/15 05:37:42;;;;;;;5.15;2.25;;;;;;;;;;5115269;28;20030;-27
2023/03/15 05:40:09;;;;;;;7.10;2.25;;;;;;;;;;5115603;28;20023;-27
2023/03/15 05:42:35;;;;;;;9.98;4.03;;;;;;;;;;5115462;28;20046;-25
2023/03/15 05:45:01;;;;;;;11.63;3.28;;;;;;;;;;5115559;28;20504;-23
2023/03/15 05:47:28;;;;;;;8.05;2.75;;;;;;;;;;5115532;28;20303;-22
2023/03/15 05:49:54;;;;;;;10.25;2.50;;;;;;;;;;5115484;28;20076;-23
2023/03/15 05:52:20;;;;;;;10.15;3.10;;;;;;;;;;5115588;28;20354;-22
2023/03/15 05:54:46;;;;;;;12.00;2.50;;;;;;;;;;5115148;28;20303;-23
2023/03/15 05:57:12;;;;;;;10.77;3.15;;;;;;;;;;5115180;28;20028;-24
2023/03/15 05:59:38;;;;;;;6.90;2.15;;;;;;;;;;5115185;28;20020;-22
2023/03/15 06:02:04;;;;;;;6.35;2.72;;;;;;;;;;5114942;28;20038;-23
2023/03/15 06:04:31;;;;;;;5.90;2.45;;;;;;;;;;5114708;28;20047;-25
2023/03/15 06:06:59;;;;;;;8.43;2.53;;;;;;;;;;5114474;28;20076;-23
2023/03/15 06:09:26;;;;;;;8.85;2.70;;;;;;;;;;5114875;28;20039;-22
2023/03/15 06:11:52;;;;;;;6.22;2.58;;;;;;;;;;5114848;28;20082;-23
2023/03/15 06:14:18;;;;;;;16.27;3.83;;;;;;;;;;5114821;28;20034;-22
2023/03/15 06:16:44;;;;;;;6.53;2.22;;;;;;;;;;5114823;28;20049;-23
2023/03/15 06:19:11;;;;;;;12.48;2.78;;;;;;;;;;5115070;28;20024;-25
2023/03/15 06:21:37;;;;;;;4.70;2.80;;;;;;;;;;5115336;28;20335;-26
2023/03/15 06:24:05;;;;;;;11.00;2.55;;;;;;;;;;5115119;28;20328;-24
2023/03/15 06:26:31;;;;;;;8.60;2.30;;;;;;;;;;5115125;28;20055;-23
2023/03/15 06:28:57;;;;;;;8.95;2.50;;;;;;;;;;5115058;28;20389;-27
2023/03/15 06:31:23;;;;;;;5.07;2.42;;;;;;;;;;5114933;28;20028;-26
2023/03/15 06:33:49;;;;;;;8.65;2.72;;;;;;;;;;5114650;28;20420;-24
2023/03/15 06:36:16;;;;;;;7.68;2.92;;;;;;;;;;5096752;28;20028;-22
2023/03/15 06:38:42;;;;;;;10.05;2.50;;;;;;;;;;5114986;28;20027;-23
2023/03/15 06:41:08;;;;;;;9.05;2.92;;;;;;;;;;5114609;28;20019;-24
2023/03/15 06:43:34;;;;;;;5.28;2.50;;;;;;;;;;5115125;28;20020;-24
2023/03/15 06:46:01;;;;;;;21.92;4.25;;;;;;;;;;5097863;28;20020;-26
2023/03/15 06:48:27;;;;;;;9.50;3.10;;;;;;;;;;5114573;28;20027;-24
2023/03/15 06:50:53;;;;;;;11.95;3.45;;;;;;;;;;5114301;28;20083;-23
2023/03/15 06:53:20;;;;;;;6.55;2.33;;;;;;;;;;5114272;28;20031;-25
2023/03/15 06:55:46;;;;;;;14.50;2.60;;;;;;;;;;5114335;28;20036;-24
2023/03/15 06:58:13;;;;;;;9.73;2.30;;;;;;;;;;5114650;28;20035;-23
2023/03/15 07:00:39;;;;;;;9.00;2.90;;;;;;;;;;5114739;28;20102;-25
2023/03/15 07:03:06;;;;;;;5.03;2.42;;;;;;;;;;5114802;28;20024;-26
2023/03/15 07:05:32;;;;;;;6.97;3.45;;;;;;;;;;5114269;28;20035;-22
2023/03/15 07:07:58;;;;;;;12.65;2.45;;;;;;;;;;5114662;28;20407;-23
2023/03/15 07:10:24;;;;;;;5.35;2.17;;;;;;;;;;5096413;28;20043;-24
2023/03/15 07:12:50;;;;;;;7.55;2.90;;;;;;;;;;5114358;28;20028;-23
2023/03/15 07:15:16;;;;;;;8.00;2.47;;;;;;;;;;5114999;28;20035;-24
2023/03/15 07:17:43;;;;;;;4.45;2.17;;;;;;;;;;5117038;28;20016;-22
2023/03/15 07:20:09;;;;;;;3.20;2.35;;;;;;;;;;5117842;28;20092;-23
2023/03/15 07:22:36;;;;;;;7.45;2.83;;;;;;;;;;5100078;28;20093;-23
2023/03/15 07:25:02;;;;;;;5.35;2.25;;;;;;;;;;5118326;28;20107;-23
2023/03/15 07:27:29;;;;;;;11.57;3.05;;;;;;;;;;5118274;28;20028;-24
2023/03/15 07:29:55;;;;;;;6.70;2.40;;;;;;;;;;5117908;28;20027;-24
2023/03/15 07:32:21;;;;;;;6.22;2.60;;;;;;;;;;5117984;28;20089;-23
2023/03/15 07:34:47;;;;;;;4.68;1.70;;;;;;;;;;5117930;28;20023;-22
2023/03/15 07:37:13;;;;;;;4.35;2.70;;;;;;;;;;5117823;28;20027;-23
2023/03/15 07:39:40;;;;;;;6.35;2.17;;;;;;;;;;5117690;28;20020;-25
2023/03/15 07:42:06;;;;;;;12.10;2.70;;;;;;;;;;5117916;28;20040;-26
2023/03/15 07:44:32;;;;;;;10.05;2.05;;;;;;;;;;5117766;28;20031;-23
2023/03/15 07:46:58;;;;;;;7.68;2.40;;;;;;;;;;5117571;28;20066;-25
2023/03/15 07:49:24;;;;;;;12.35;2.35;;;;;;;;;;5118284;28;20028;-23
2023/03/15 07:51:51;;;;;;;9.90;2.28;;;;;;;;;;5117751;28;20034;-27
2023/03/15 07:54:18;;;;;;;10.70;3.33;;;;;;;;;;5117825;28;20039;-27
2023/03/15 07:56:44;;;;;;;8.00;2.83;;;;;;;;;;5117473;28;20027;-25
2023/03/15 07:59:10;;;;;;;16.83;3.10;;;;;;;;;;5117411;28;20450;-23
2023/03/15 08:01:36;;;;;;;6.22;2.60;;;;;;;;;;5117731;28;20054;-24
2023/03/15 08:04:03;;;;;;;6.78;3.25;;;;;;;;;;5117083;28;20130;-27
2023/03/15 08:06:30;;;;;;;17.58;3.03;;;;;;;;;;5118158;28;20476;-27
2023/03/15 08:08:56;;;;;;;8.35;2.15;;;;;;;;;;5117393;28;20051;-23
2023/03/15 08:11:22;;;;;;;7.47;2.95;;;;;;;;;;5117828;28;20122;-24
2023/03/15 08:13:48;;;;;;;4.00;2.42;;;;;;;;;;5117224;28;20351;-22
2023/03/15 08:16:15;;;;;;;6.93;2.85;;;;;;;;;;5117024;28;20023;-22
2023/03/15 08:18:41;;;;;;;10.05;2.63;;;;;;;;;;5117021;28;20024;-22
2023/03/15 08:21:07;;;;;;;6.47;2.92;;;;;;;;;;5116967;28;20315;-24
2023/03/15 08:23:33;;;;;;;8.90;2.15;;;;;;;;;;5099114;28;20023;-23
2023/03/15 08:26:00;;;;;;;15.85;3.97;;;;;;;;;;5098885;28;20028;-28
2023/03/15 08:28:26;;;;;;;4.03;2.22;;;;;;;;;;5116114;28;20097;-23
2023/03/15 08:30:52;;;;;;;5.28;2.17;;;;;;;;;;5116723;28;20031;-23
2023/03/15 08:33:18;;;;;;;16.17;2.78;;;;;;;;;;5116802;28;20322;-27
2023/03/15 08:35:44;;;;;;;7.32;2.97;;;;;;;;;;5116855;28;20019;-23
2023/03/15 08:38:11;;;;;;;16.15;3.35;;;;;;;;;;5116696;28;20393;-22
2023/03/15 08:40:37;;;;;;;15.10;2.83;;;;;;;;;;5116679;28;20350;-25
2023/03/15 08:43:03;;;;;;;13.85;3.83;;;;;;;;;;5116530;28;20019;-27
2023/03/15 08:45:30;;;;;;;15.77;2.95;;;;;;;;;;5116435;28;20043;-23
2023/03/15 08:47:59;;;;;;;9.90;2.50;;;;;;;;;;5116765;28;20398;-23
2023/03/15 08:50:26;;;;;;;15.25;3.03;;;;;;;;;;5116490;28;20058;-24
2023/03/15 08:52:52;;;;;;;11.63;3.22;;;;;;;;;;5116067;28;20024;-22
2023/03/15 08:55:19;;;;;;;9.30;2.78;;;;;;;;;;5116114;28;20476;-23
2023/03/15 08:57:45;;;;;;;9.30;2.10;;;;;;;;;;5116073;28;20354;-23
2023/03/15 09:00:22;;;;;;;7.10;2.60;;;;;;;;;;5116297;28;20023;-23
2023/03/15 09:02:48;;;;;;;7.70;2.30;;;;;;;;;;5116243;28;20019;-30
2023/03/15 09:05:15;;;;;;;7.00;2.40;;;;;;;;;;5094574;28;20387;-24
2023/03/15 09:07:44;;;;;;;3.40;2.25;;;;;;;;;;5094675;28;20077;-22
2023/03/15 09:10:14;;;;;;;7.82;3.42;;;;;;;;;;5095834;28;20016;-23
2023/03/15 09:12:48;;;;;;;5.82;2.53;;;;;;;;;;5094779;28;20039;-28
2023/03/15 09:15:14;;;;;;;6.38;2.55;;;;;;;;;;5095719;28;20028;-22
2023/03/15 09:17:41;;;;;;;16.20;2.38;;;;;;;;;;5095625;28;20020;-22
2023/03/15 09:20:13;;;;;;;5.90;3.72;;;;;;;;;;5094427;28;20031;-24
2023/03/15 09:22:39;;;;;;;7.63;2.10;;;;;;;;;;5095222;28;20028;-24
2023/03/15 09:25:06;;;;;;;11.15;3.55;;;;;;;;;;5095293;28;20097;-22
2023/03/15 09:27:32;;;;;;;7.60;2.10;;;;;;;;;;5094564;28;20111;-26
2023/03/15 09:29:58;;;;;;;5.70;2.22;;;;;;;;;;5095589;28;20485;-24
2023/03/15 09:32:24;;;;;;;5.15;2.10;;;;;;;;;;5094915;28;20032;-24
2023/03/15 09:34:50;;;;;;;9.43;2.95;;;;;;;;;;5095046;28;20308;-25
2023/03/15 09:37:17;;;;;;;5.35;2.03;;;;;;;;;;5095274;28;20084;-24
2023/03/15 09:39:43;;;;;;;5.85;2.40;;;;;;;;;;5094781;28;20054;-23
2023/03/15 09:42:20;;;;;;;6.72;3.17;;;;;;;;;;5094815;28;20020;-23
2023/03/15 09:44:51;;;;;;;5.40;2.78;;;;;;;;;;5094813;28;20085;-25
2023/03/15 09:47:25;;;;;;;7.93;2.75;;;;;;;;;;5094876;28;20048;-22
2023/03/15 09:50:03;;;;;;;12.90;2.35;;;;;;;;;;5095135;28;20040;-28
2023/03/15 09:52:39;;;;;;;6.45;2.30;;;;;;;;;;5094670;28;20024;-24
2023/03/15 09:55:17;;;;;;;6.63;2.33;;;;;;;;;;5095503;28;20443;-25
2023/03/15 09:57:50;;;;;;;7.45;2.65;;;;;;;;;;5094714;28;20031;-23
2023/03/15 10:00:19;;;;;;;8.43;2.25;;;;;;;;;;5094684;28;20013;-23
2023/03/15 10:02:55;;;;;;;3.55;2.10;;;;;;;;;;5095005;28;20473;-23
2023/03/15 10:05:34;;;;;;;6.65;2.05;;;;;;;;;;5093505;28;20124;-23
2023/03/15 10:08:00;;;;;;;4.90;2.45;;;;;;;;;;5093515;28;20340;-24
2023/03/15 10:10:35;;;;;;;8.38;2.45;;;;;;;;;;5094744;28;20024;-26
2023/03/15 10:13:10;;;;;;;6.05;2.45;;;;;;;;;;5094399;28;20096;-23
2023/03/15 10:15:57;;;;;;;8.85;2.28;;;;;;;;;;5094894;28;20081;-24
2023/03/15 10:18:30;;;;;;;12.73;2.55;;;;;;;;;;5094626;28;20065;-24
2023/03/15 10:21:20;;;;;;;6.32;2.63;;;;;;;;;;5094260;28;20020;-25
2023/03/15 10:23:55;;;;;;;3.95;2.25;;;;;;;;;;5057050;28;20028;-23
2023/03/15 10:26:24;;;;;;;4.10;2.60;;;;;;;;;;5094696;28;20041;-23
2023/03/15 10:28:50;;;;;;;6.90;2.20;;;;;;;;;;5094830;28;20028;-23
2023/03/15 10:31:20;;;;;;;10.75;2.65;;;;;;;;;;5094224;28;20052;-21
2023/03/15 10:33:46;;;;;;;7.80;2.85;;;;;;;;;;5094174;28;20020;-24
2023/03/15 10:36:20;;;;;;;10.68;3.20;;;;;;;;;;5094114;28;20109;-23
2023/03/15 10:38:47;;;;;;;8.07;2.60;;;;;;;;;;5094079;28;20458;-22
2023/03/15 10:41:14;;;;;;;7.85;2.35;;;;;;;;;;5094130;28;20151;-23
2023/03/15 10:43:41;;;;;;;7.30;2.45;;;;;;;;;;5094345;28;20385;-22
2023/03/15 10:46:07;;;;;;;8.38;2.50;;;;;;;;;;5093259;28;20350;-22
2023/03/15 10:48:38;;;;;;;5.75;2.47;;;;;;;;;;5093218;28;20028;-22
2023/03/15 10:51:05;;;;;;;8.70;2.75;;;;;;;;;;5094434;28;20355;-22
2023/03/15 10:53:32;;;;;;;7.03;2.50;;;;;;;;;;5098389;28;20023;-21
2023/03/15 10:56:06;;;;;;;6.53;2.15;;;;;;;;;;5098192;28;20016;-24
2023/03/15 10:58:40;;;;;;;11.52;3.30;;;;;;;;;;5098595;28;20103;-22
2023/03/15 11:01:08;;;;;;;8.50;2.30;;;;;;;;;;5098354;28;20059;-21
2023/03/15 11:03:35;;;;;;;11.35;2.30;;;;;;;;;;5099811;28;20359;-22
2023/03/15 11:06:03;;;;;;;7.28;1.90;;;;;;;;;;5118723;28;20461;-21
2023/03/15 11:08:37;;;;;;;5.13;2.05;;;;;;;;;;5118501;28;20416;-23
2023/03/15 11:11:03;;;;;;;5.78;2.05;;;;;;;;;;5118339;28;20028;-24
2023/03/15 11:13:31;;;;;;;5.50;2.50;;;;;;;;;;5118151;28;20382;-24
2023/03/15 11:16:02;;;;;;;14.38;2.60;;;;;;;;;;5100068;28;20032;-24
2023/03/15 11:18:28;;;;;;;;;;;;;;;;;;5118779;28;20098;-22
2023/03/15 11:20:55;;;;;;;7.85;2.50;;;;;;;;;;5118349;28;19904;-23
2023/03/15 11:23:24;;;;;;;10.07;3.30;;;;;;;;;;5118246;28;20115;-22
2023/03/15 11:25:51;;;;;;;12.05;2.47;;;;;;;;;;5117907;28;20066;-21
2023/03/15 11:28:18;;;;;;;10.25;2.97;;;;;;;;;;5099867;28;20023;-23
2023/03/15 11:30:45;;;;;;;12.40;3.50;;;;;;;;;;5117859;28;20354;-23
2023/03/15 11:33:13;;;;;;;15.20;3.40;;;;;;;;;;5117558;28;20450;-23
2023/03/15 11:35:46;;;;;;;5.57;2.30;;;;;;;;;;5117959;28;20046;-33
2023/03/15 11:38:34;;;;;;;15.00;2.70;;;;;;;;;;5100507;28;20019;-24
2023/03/15 11:41:02;;;;;;;14.07;2.28;;;;;;;;;;5118125;28;20072;-23
2023/03/15 11:43:46;;;;;;;20.83;2.97;;;;;;;;;;5118081;28;20084;-23
2023/03/15 11:46:25;;;;;;;6.85;2.70;;;;;;;;;;5117615;28;20095;-23
2023/03/15 11:49:09;;;;;;;8.15;2.80;;;;;;;;;;5117359;28;20036;-26
2023/03/15 11:51:36;;;;;;;7.85;2.50;;;;;;;;;;5117266;28;20030;-24
2023/03/15 11:54:03;;;;;;;21.05;3.22;;;;;;;;;;5117566;28;20047;-22
2023/03/15 11:56:49;;;;;;;10.85;2.88;;;;;;;;;;5117293;28;20446;-23
2023/03/15 11:59:32;;;;;;;6.10;3.35;;;;;;;;;;5116993;28;20050;-24
2023/03/15 12:01:59;;;;;;;7.53;2.88;;;;;;;;;;5117423;28;20091;-24
2023/03/15 12:04:45;;;;;;;9.38;2.40;;;;;;;;;;5094344;28;20127;-23
2023/03/15 12:07:22;;;;;;;9.18;2.47;;;;;;;;;;5097272;28;20035;-23
2023/03/15 12:09:54;;;;;;;14.98;2.67;;;;;;;;;;5097146;28;20035;-23
2023/03/15 12:12:24;;;;;;;6.97;2.13;;;;;;;;;;5096838;28;20024;-23
2023/03/15 12:15:09;;;;;;;5.97;2.50;;;;;;;;;;5096978;28;20436;-22
2023/03/15 12:17:38;;;;;;;3.58;2.00;;;;;;;;;;5096756;28;20462;-23
2023/03/15 12:20:10;;;;;;;3.25;1.95;;;;;;;;;;5096617;28;20108;-23
2023/03/15 12:22:37;;;;;;;11.27;4.07;;;;;;;;;;5095752;28;20024;-27
2023/03/15 12:25:11;;;;;;;9.63;2.22;;;;;;;;;;5096589;28;20024;-22
2023/03/15 12:27:40;;;;;;;21.30;3.55;;;;;;;;;;5096556;28;20036;-21
2023/03/15 12:30:07;;;;;;;6.32;2.38;;;;;;;;;;5096613;28;20019;-20
2023/03/15 12:32:43;;;;;;;10.27;2.63;;;;;;;;;;5096239;28;20393;-21
2023/03/15 12:35:16;;;;;;;7.88;2.88;;;;;;;;;;5096689;28;20047;-26
2023/03/15 12:37:44;;;;;;;4.90;2.50;;;;;;;;;;5096691;28;20028;-22
2023/03/15 12:40:21;;;;;;;4.60;2.53;;;;;;;;;;5096553;28;20023;-21
2023/03/15 12:42:47;;;;;;;13.45;2.50;;;;;;;;;;5096843;28;20028;-20
2023/03/15 12:45:16;;;;;;;17.17;2.92;;;;;;;;;;5096279;28;20086;-23
2023/03/15 12:47:51;;;;;;;14.95;3.53;;;;;;;;;;5095991;28;20020;-23
2023/03/15 12:50:37;;;;;;;18.15;2.88;;;;;;;;;;5095948;28;20099;-22
2023/03/15 12:53:23;;;;;;;20.27;3.47;;;;;;;;;;5095763;28;20103;-22
2023/03/15 12:55:50;;;;;;;11.23;2.58;;;;;;;;;;5095779;28;20027;-23
2023/03/15 12:58:18;;;;;;;24.92;3.83;;;;;;;;;;5095795;28;20024;-22
2023/03/15 13:00:44;;;;;;;14.73;3.13;;;;;;;;;;5096226;28;20036;-22
2023/03/15 13:03:17;;;;;;;11.65;2.63;;;;;;;;;;5095877;28;20036;-21
2023/03/15 13:05:44;;;;;;;18.13;3.40;;;;;;;;;;5115533;28;20036;-21
2023/03/15 13:08:15;;;;;;;12.73;3.28;;;;;;;;;;5115815;28;20028;-25
2023/03/15 13:11:00;;;;;;;10.88;3.13;;;;;;;;;;5116047;28;20035;-21
2023/03/15 13:13:29;;;;;;;14.20;3.35;;;;;;;;;;5116075;28;20047;-20
2023/03/15 13:16:01;;;;;;;13.07;2.75;;;;;;;;;;5115852;28;20023;-21
2023/03/15 13:18:33;;;;;;;8.13;2.45;;;;;;;;;;5116039;28;20051;-20
2023/03/15 13:21:17;;;;;;;5.15;2.47;;;;;;;;;;5115910;28;20062;-23
2023/03/15 13:23:49;;;;;;;13.23;2.65;;;;;;;;;;5115658;28;20070;-21
2023/03/15 13:26:35;;;;;;;26.63;5.07;;;;;;;;;;5116021;28;20023;-21
2023/03/15 13:29:21;;;;;;;7.93;2.65;;;;;;;;;;5097554;28;20024;-22
2023/03/15 13:31:59;;;;;;;6.70;2.67;;;;;;;;;;5115616;28;20019;-20
2023/03/15 13:34:25;;;;;;;22.58;4.75;;;;;;;;;;5115873;28;20094;-21
2023/03/15 13:36:55;;;;;;;16.65;3.35;;;;;;;;;;5115460;28;20023;-24
2023/03/15 13:39:23;;;;;;;14.27;3.13;;;;;;;;;;5115744;28;20073;-23
2023/03/15 13:41:49;;;;;;;12.10;2.92;;;;;;;;;;5115336;28;20076;-25
2023/03/15 13:44:17;;;;;;;7.45;3.00;;;;;;;;;;5115692;28;20153;-23
2023/03/15 13:46:44;;;;;;;10.40;2.90;;;;;;;;;;5097653;28;20331;-21
2023/03/15 13:49:12;;;;;;;8.93;2.60;;;;;;;;;;5115609;28;20031;-23
2023/03/15 13:51:38;;;;;;;13.02;2.80;;;;;;;;;;5115552;28;20035;-22
2023/03/15 13:54:06;;;;;;;11.05;2.20;;;;;;;;;;5115660;28;20024;-21
2023/03/15 13:56:35;;;;;;;9.48;3.35;;;;;;;;;;5098280;28;20067;-25
2023/03/15 13:59:03;;;;;;;12.50;2.78;;;;;;;;;;5115121;28;20106;-22
2023/03/15 14:01:34;;;;;;;11.25;2.88;;;;;;;;;;5115168;28;20066;-22
2023/03/15 14:04:06;;;;;;;5.80;2.40;;;;;;;;;;5114809;28;20031;-21
2023/03/15 14:06:32;;;;;;;8.90;2.85;;;;;;;;;;5115115;28;20038;-24
2023/03/15 14:09:08;;;;;;;13.65;3.05;;;;;;;;;;5116073;28;20145;-23
2023/03/15 14:11:37;;;;;;;13.23;3.22;;;;;;;;;;5115216;28;20039;-22
2023/03/15 14:14:18;;;;;;;16.98;3.20;;;;;;;;;;5114981;28;20055;-24
2023/03/15 14:16:46;;;;;;;4.50;2.35;;;;;;;;;;5115585;28;20027;-26
2023/03/15 14:19:22;;;;;;;9.70;2.55;;;;;;;;;;5115015;28;20054;-22
2023/03/15 14:21:53;;;;;;;8.50;2.60;;;;;;;;;;5114708;28;20023;-21
2023/03/15 14:24:28;;;;;;;3.60;1.98;;;;;;;;;;5115162;28;20027;-22
2023/03/15 14:26:56;;;;;;;8.68;2.67;;;;;;;;;;5113796;28;20055;-23
2023/03/15 14:29:27;;;;;;;6.05;2.40;;;;;;;;;;5114818;28;20143;-25
2023/03/15 14:31:53;;;;;;;8.80;2.17;;;;;;;;;;5114740;28;20080;-21
2023/03/15 14:34:22;;;;;;;9.25;2.60;;;;;;;;;;5115068;28;20047;-22
2023/03/15 14:36:50;;;;;;;11.18;2.60;;;;;;;;;;5114990;28;20050;-22
2023/03/15 14:39:25;;;;;;;4.03;2.35;;;;;;;;;;5115604;28;20023;-22
2023/03/15 14:41:51;;;;;;;8.68;1.85;;;;;;;;;;5114928;28;20311;-22
2023/03/15 14:44:17;;;;;;;7.80;2.53;;;;;;;;;;5096859;28;20091;-24
2023/03/15 14:46:43;;;;;;;14.52;3.30;;;;;;;;;;5114650;28;20019;-26
2023/03/15 14:49:16;;;;;;;14.57;3.45;;;;;;;;;;5114752;28;20084;-23